sensor_id;sensor_type;location;lat;lon;timestamp;pressure;altitude;pressure_sealevel;temperature;humidity
31483;BME280;18103;52.246;8.052;2023-05-22T00:01:16;100324.91;;;19.18;73.59
31483;BME280;18103;52.246;8.052;2023-05-22T00:03:45;100324.19;;;19.24;72.67
31483;BME280;18103;52.246;8.052;2023-05-22T00:06:11;100316.75;;;19.35;72.46
31483;BME280;18103;52.246;8.052;2023-05-22T00:08:39;100323.75;;;19.36;72.45
31483;BME280;18103;52.246;8.052;2023-05-22T00:11:05;100317.59;;;19.35;72.47
31483;BME280;18103;52.246;8.052;2023-05-22T00:13:35;100311.50;;;19.41;73.03
31483;BME280;18103;52.246;8.052;2023-05-22T00:16:03;100301.81;;;19.40;72.65
31483;BME280;18103;52.246;8.052;2023-05-22T00:18:28;100307.72;;;19.36;72.90
31483;BME280;18103;52.246;8.052;2023-05-22T00:20:53;100298.50;;;19.38;74.21
31483;BME280;18103;52.246;8.052;2023-05-22T00:23:23;100292.19;;;19.31;73.50
31483;BME280;18103;52.246;8.052;2023-05-22T00:25:49;100287.50;;;19.10;75.43
31483;BME280;18103;52.246;8.052;2023-05-22T00:28:15;100300.09;;;19.24;74.86
31483;BME280;18103;52.246;8.052;2023-05-22T00:30:40;100297.47;;;19.16;75.28
31483;BME280;18103;52.246;8.052;2023-05-22T00:33:09;100297.88;;;19.05;76.39
31483;BME280;18103;52.246;8.052;2023-05-22T00:35:37;100297.53;;;19.08;75.79
31483;BME280;18103;52.246;8.052;2023-05-22T00:38:03;100298.75;;;18.97;75.88
31483;BME280;18103;52.246;8.052;2023-05-22T00:40:30;100299.97;;;18.94;74.01
31483;BME280;18103;52.246;8.052;2023-05-22T00:42:57;100301.94;;;19.01;74.33
31483;BME280;18103;52.246;8.052;2023-05-22T00:45:23;100314.03;;;18.80;75.07
31483;BME280;18103;52.246;8.052;2023-05-22T00:47:49;100316.91;;;18.78;74.50
31483;BME280;18103;52.246;8.052;2023-05-22T00:50:15;100325.91;;;18.77;74.49
31483;BME280;18103;52.246;8.052;2023-05-22T00:52:44;100313.34;;;18.46;76.11
31483;BME280;18103;52.246;8.052;2023-05-22T00:55:13;100339.31;;;18.21;78.14
31483;BME280;18103;52.246;8.052;2023-05-22T00:57:39;100340.38;;;18.04;75.76
31483;BME280;18103;52.246;8.052;2023-05-22T01:00:07;100338.06;;;17.92;76.90
31483;BME280;18103;52.246;8.052;2023-05-22T01:02:35;100349.56;;;18.01;73.75
31483;BME280;18103;52.246;8.052;2023-05-22T01:05:02;100358.91;;;17.97;74.56
31483;BME280;18103;52.246;8.052;2023-05-22T01:07:30;100360.25;;;17.93;75.17
31483;BME280;18103;52.246;8.052;2023-05-22T01:09:56;100321.16;;;17.84;78.11
31483;BME280;18103;52.246;8.052;2023-05-22T01:12:33;100315.66;;;17.44;81.36
31483;BME280;18103;52.246;8.052;2023-05-22T01:15:20;100341.03;;;17.56;77.07
31483;BME280;18103;52.246;8.052;2023-05-22T01:18:10;100304.50;;;17.49;81.46
31483;BME280;18103;52.246;8.052;2023-05-22T01:26:21;100281.47;;;17.23;83.74
31483;BME280;18103;52.246;8.052;2023-05-22T01:29:13;100280.31;;;17.25;83.95
31483;BME280;18103;52.246;8.052;2023-05-22T01:31:47;100275.81;;;17.26;84.23
31483;BME280;18103;52.246;8.052;2023-05-22T01:34:15;100271.63;;;17.23;84.54
31483;BME280;18103;52.246;8.052;2023-05-22T01:36:42;100277.47;;;17.27;84.94
31483;BME280;18103;52.246;8.052;2023-05-22T01:39:10;100278.16;;;17.21;84.99
31483;BME280;18103;52.246;8.052;2023-05-22T01:41:39;100281.66;;;17.38;85.06
31483;BME280;18103;52.246;8.052;2023-05-22T01:44:05;100290.66;;;17.28;84.65
31483;BME280;18103;52.246;8.052;2023-05-22T01:46:30;100286.16;;;17.37;85.24
31483;BME280;18103;52.246;8.052;2023-05-22T01:48:56;100283.63;;;17.27;85.39
31483;BME280;18103;52.246;8.052;2023-05-22T01:54:09;100268.50;;;17.36;85.39
31483;BME280;18103;52.246;8.052;2023-05-22T01:56:47;100259.81;;;17.34;85.59
31483;BME280;18103;52.246;8.052;2023-05-22T01:59:25;100246.13;;;17.45;84.64
31483;BME280;18103;52.246;8.052;2023-05-22T02:01:55;100231.97;;;17.28;85.77
31483;BME280;18103;52.246;8.052;2023-05-22T02:04:23;100231.13;;;17.28;85.95
31483;BME280;18103;52.246;8.052;2023-05-22T02:06:53;100227.97;;;17.33;84.05
31483;BME280;18103;52.246;8.052;2023-05-22T02:09:22;100220.13;;;17.23;86.20
31483;BME280;18103;52.246;8.052;2023-05-22T02:11:50;100217.81;;;17.28;85.39
31483;BME280;18103;52.246;8.052;2023-05-22T02:14:17;100207.59;;;17.32;85.12
31483;BME280;18103;52.246;8.052;2023-05-22T02:16:44;100209.44;;;17.31;85.60
31483;BME280;18103;52.246;8.052;2023-05-22T02:19:12;100217.13;;;17.34;84.94
31483;BME280;18103;52.246;8.052;2023-05-22T02:21:40;100229.47;;;17.27;86.10
31483;BME280;18103;52.246;8.052;2023-05-22T02:24:06;100221.81;;;17.24;86.14
31483;BME280;18103;52.246;8.052;2023-05-22T02:26:31;100215.59;;;17.23;85.85
31483;BME280;18103;52.246;8.052;2023-05-22T02:28:57;100212.78;;;17.25;85.58
31483;BME280;18103;52.246;8.052;2023-05-22T02:31:23;100215.78;;;17.30;86.46
31483;BME280;18103;52.246;8.052;2023-05-22T02:33:50;100211.78;;;17.26;85.79
31483;BME280;18103;52.246;8.052;2023-05-22T02:36:18;100211.28;;;17.31;84.73
31483;BME280;18103;52.246;8.052;2023-05-22T02:38:45;100209.44;;;17.31;86.04
31483;BME280;18103;52.246;8.052;2023-05-22T02:41:11;100197.59;;;17.42;85.08
31483;BME280;18103;52.246;8.052;2023-05-22T02:43:39;100200.47;;;17.32;85.98
31483;BME280;18103;52.246;8.052;2023-05-22T02:46:07;100200.59;;;17.39;85.46
31483;BME280;18103;52.246;8.052;2023-05-22T02:48:32;100200.63;;;17.22;85.96
31483;BME280;18103;52.246;8.052;2023-05-22T02:50:57;100197.09;;;17.22;86.11
31483;BME280;18103;52.246;8.052;2023-05-22T02:53:26;100201.78;;;17.28;85.06
31483;BME280;18103;52.246;8.052;2023-05-22T02:55:52;100203.44;;;17.29;85.59
31483;BME280;18103;52.246;8.052;2023-05-22T02:58:23;100192.13;;;17.19;85.98
31483;BME280;18103;52.246;8.052;2023-05-22T03:00:49;100189.97;;;17.22;86.15
31483;BME280;18103;52.246;8.052;2023-05-22T03:03:19;100196.94;;;17.23;86.65
31483;BME280;18103;52.246;8.052;2023-05-22T03:05:44;100189.97;;;17.22;85.76
31483;BME280;18103;52.246;8.052;2023-05-22T03:08:10;100187.59;;;17.19;86.21
31483;BME280;18103;52.246;8.052;2023-05-22T03:10:37;100194.28;;;17.23;85.77
31483;BME280;18103;52.246;8.052;2023-05-22T03:13:02;100184.28;;;17.17;86.59
31483;BME280;18103;52.246;8.052;2023-05-22T03:15:30;100183.13;;;17.20;86.42
31483;BME280;18103;52.246;8.052;2023-05-22T03:17:55;100187.94;;;17.24;86.69
31483;BME280;18103;52.246;8.052;2023-05-22T03:20:21;100192.75;;;17.29;85.70
31483;BME280;18103;52.246;8.052;2023-05-22T03:22:48;100191.28;;;17.26;85.67
31483;BME280;18103;52.246;8.052;2023-05-22T03:25:14;100195.78;;;17.18;85.57
31483;BME280;18103;52.246;8.052;2023-05-22T03:27:39;100193.97;;;17.26;85.44
31483;BME280;18103;52.246;8.052;2023-05-22T03:30:06;100198.13;;;17.21;85.65
31483;BME280;18103;52.246;8.052;2023-05-22T03:32:33;100193.09;;;17.34;85.10
31483;BME280;18103;52.246;8.052;2023-05-22T03:35:03;100198.44;;;17.26;86.71
31483;BME280;18103;52.246;8.052;2023-05-22T03:37:29;100188.44;;;17.28;85.76
31483;BME280;18103;52.246;8.052;2023-05-22T03:39:54;100182.13;;;17.21;87.92
31483;BME280;18103;52.246;8.052;2023-05-22T03:42:20;100194.44;;;17.22;86.61
31483;BME280;18103;52.246;8.052;2023-05-22T03:44:48;100189.94;;;17.31;85.20
31483;BME280;18103;52.246;8.052;2023-05-22T03:47:16;100192.63;;;17.22;85.35
31483;BME280;18103;52.246;8.052;2023-05-22T03:49:41;100190.94;;;17.30;86.50
31483;BME280;18103;52.246;8.052;2023-05-22T03:52:09;100177.28;;;17.24;86.03
31483;BME280;18103;52.246;8.052;2023-05-22T03:54:37;100179.75;;;17.34;86.09
31483;BME280;18103;52.246;8.052;2023-05-22T03:57:03;100180.28;;;17.38;87.85
31483;BME280;18103;52.246;8.052;2023-05-22T03:59:28;100179.13;;;17.24;88.44
31483;BME280;18103;52.246;8.052;2023-05-22T04:01:54;100184.63;;;17.14;88.28
31483;BME280;18103;52.246;8.052;2023-05-22T04:04:22;100176.78;;;17.13;87.99
31483;BME280;18103;52.246;8.052;2023-05-22T04:06:52;100184.13;;;17.19;86.58
31483;BME280;18103;52.246;8.052;2023-05-22T04:09:20;100190.44;;;17.26;85.42
31483;BME280;18103;52.246;8.052;2023-05-22T04:11:48;100184.94;;;17.19;86.14
31483;BME280;18103;52.246;8.052;2023-05-22T04:14:17;100194.28;;;17.23;86.98
31483;BME280;18103;52.246;8.052;2023-05-22T04:16:43;100186.78;;;17.27;87.67
31483;BME280;18103;52.246;8.052;2023-05-22T04:19:08;100182.09;;;17.29;88.27
31483;BME280;18103;52.246;8.052;2023-05-22T04:21:36;100178.94;;;17.25;88.50
31483;BME280;18103;52.246;8.052;2023-05-22T04:24:04;100177.78;;;17.28;88.06
31483;BME280;18103;52.246;8.052;2023-05-22T04:26:34;100178.13;;;17.17;88.62
31483;BME280;18103;52.246;8.052;2023-05-22T04:29:03;100176.28;;;17.25;88.11
31483;BME280;18103;52.246;8.052;2023-05-22T04:31:30;100170.78;;;17.27;87.73
31483;BME280;18103;52.246;8.052;2023-05-22T04:34:00;100176.09;;;17.27;89.06
31483;BME280;18103;52.246;8.052;2023-05-22T04:36:26;100171.94;;;17.24;87.54
31483;BME280;18103;52.246;8.052;2023-05-22T04:38:52;100177.25;;;17.33;88.79
31483;BME280;18103;52.246;8.052;2023-05-22T04:41:20;100180.44;;;17.36;88.56
31483;BME280;18103;52.246;8.052;2023-05-22T04:43:51;100177.78;;;17.28;87.60
31483;BME280;18103;52.246;8.052;2023-05-22T04:46:17;100171.94;;;17.33;88.06
31483;BME280;18103;52.246;8.052;2023-05-22T04:48:42;100178.78;;;17.27;89.08
31483;BME280;18103;52.246;8.052;2023-05-22T04:51:08;100186.78;;;17.27;88.24
31483;BME280;18103;52.246;8.052;2023-05-22T04:53:34;100180.59;;;17.35;87.21
31483;BME280;18103;52.246;8.052;2023-05-22T04:56:03;100186.59;;;17.37;88.11
31483;BME280;18103;52.246;8.052;2023-05-22T04:58:28;100176.75;;;17.29;88.18
31483;BME280;18103;52.246;8.052;2023-05-22T05:00:59;100181.25;;;17.37;88.13
31483;BME280;18103;52.246;8.052;2023-05-22T05:03:26;100181.91;;;17.39;88.39
31483;BME280;18103;52.246;8.052;2023-05-22T05:05:52;100182.09;;;17.37;88.08
31483;BME280;18103;52.246;8.052;2023-05-22T05:08:18;100186.78;;;17.35;89.04
31483;BME280;18103;52.246;8.052;2023-05-22T05:10:43;100184.56;;;17.39;88.43
31483;BME280;18103;52.246;8.052;2023-05-22T05:13:11;100164.91;;;17.40;87.47
31483;BME280;18103;52.246;8.052;2023-05-22T05:15:36;100163.09;;;17.40;87.80
31483;BME280;18103;52.246;8.052;2023-05-22T05:18:02;100170.59;;;17.45;86.77
31483;BME280;18103;52.246;8.052;2023-05-22T05:20:27;100147.41;;;17.37;87.53
31483;BME280;18103;52.246;8.052;2023-05-22T05:22:54;100153.59;;;17.30;88.22
31483;BME280;18103;52.246;8.052;2023-05-22T05:25:20;100163.56;;;17.44;87.37
31483;BME280;18103;52.246;8.052;2023-05-22T05:27:45;100158.22;;;17.52;86.92
31483;BME280;18103;52.246;8.052;2023-05-22T05:30:14;100167.41;;;17.50;87.66
31483;BME280;18103;52.246;8.052;2023-05-22T05:32:43;100163.91;;;17.49;87.22
31483;BME280;18103;52.246;8.052;2023-05-22T05:35:08;100173.91;;;17.47;87.53
31483;BME280;18103;52.246;8.052;2023-05-22T05:37:33;100169.88;;;17.51;87.39
31483;BME280;18103;52.246;8.052;2023-05-22T05:39:59;100168.38;;;17.49;88.45
31483;BME280;18103;52.246;8.052;2023-05-22T05:42:24;100166.91;;;17.46;88.46
31483;BME280;18103;52.246;8.052;2023-05-22T05:44:50;100166.06;;;17.45;88.26
31483;BME280;18103;52.246;8.052;2023-05-22T05:47:15;100159.22;;;17.43;88.40
31483;BME280;18103;52.246;8.052;2023-05-22T05:49:48;100164.91;;;17.48;88.08
31483;BME280;18103;52.246;8.052;2023-05-22T05:52:13;100159.41;;;17.41;89.37
31483;BME280;18103;52.246;8.052;2023-05-22T05:54:41;100175.22;;;17.51;88.09
31483;BME280;18103;52.246;8.052;2023-05-22T05:57:15;100173.91;;;17.47;88.83
31483;BME280;18103;52.246;8.052;2023-05-22T05:59:41;100171.41;;;17.45;88.36
31483;BME280;18103;52.246;8.052;2023-05-22T06:02:09;100167.19;;;17.59;87.62
31483;BME280;18103;52.246;8.052;2023-05-22T06:04:36;100170.22;;;17.56;88.16
31483;BME280;18103;52.246;8.052;2023-05-22T06:07:03;100155.72;;;17.59;88.29
31483;BME280;18103;52.246;8.052;2023-05-22T06:09:29;100152.84;;;17.60;88.39
31483;BME280;18103;52.246;8.052;2023-05-22T06:11:54;100150.53;;;17.66;87.74
31483;BME280;18103;52.246;8.052;2023-05-22T06:14:20;100160.00;;;17.68;88.51
31483;BME280;18103;52.246;8.052;2023-05-22T06:16:48;100162.16;;;17.81;87.87
31483;BME280;18103;52.246;8.052;2023-05-22T06:19:16;100171.34;;;17.70;89.38
31483;BME280;18103;52.246;8.052;2023-05-22T06:21:41;100165.00;;;17.79;87.93
31483;BME280;18103;52.246;8.052;2023-05-22T06:24:06;100172.50;;;17.76;88.34
31483;BME280;18103;52.246;8.052;2023-05-22T06:26:35;100166.13;;;17.85;87.75
31483;BME280;18103;52.246;8.052;2023-05-22T06:29:00;100169.28;;;17.89;88.10
31483;BME280;18103;52.246;8.052;2023-05-22T06:31:26;100167.66;;;17.79;89.00
31483;BME280;18103;52.246;8.052;2023-05-22T06:33:52;100167.81;;;17.78;87.98
31483;BME280;18103;52.246;8.052;2023-05-22T06:36:22;100162.66;;;17.76;88.50
31483;BME280;18103;52.246;8.052;2023-05-22T06:38:47;100171.78;;;17.90;87.73
31483;BME280;18103;52.246;8.052;2023-05-22T06:41:13;100167.31;;;17.83;88.21
31483;BME280;18103;52.246;8.052;2023-05-22T06:43:39;100165.44;;;18.00;86.86
31483;BME280;18103;52.246;8.052;2023-05-22T06:46:06;100175.63;;;17.96;88.07
31483;BME280;18103;52.246;8.052;2023-05-22T06:48:36;100175.13;;;18.01;87.70
31483;BME280;18103;52.246;8.052;2023-05-22T06:51:04;100174.41;;;18.07;87.08
31483;BME280;18103;52.246;8.052;2023-05-22T06:53:30;100178.09;;;18.06;86.95
31483;BME280;18103;52.246;8.052;2023-05-22T06:55:55;100173.25;;;18.09;86.22
31483;BME280;18103;52.246;8.052;2023-05-22T06:58:21;100173.88;;;18.11;86.58
31483;BME280;18103;52.246;8.052;2023-05-22T07:00:46;100174.06;;;18.10;87.33
31483;BME280;18103;52.246;8.052;2023-05-22T07:03:12;100170.88;;;18.15;86.76
31483;BME280;18103;52.246;8.052;2023-05-22T07:05:39;100167.50;;;18.21;86.74
31483;BME280;18103;52.246;8.052;2023-05-22T07:08:06;100174.31;;;18.32;85.86
31483;BME280;18103;52.246;8.052;2023-05-22T07:10:32;100173.22;;;18.41;86.10
31483;BME280;18103;52.246;8.052;2023-05-22T07:13:00;100177.41;;;18.43;85.98
31483;BME280;18103;52.246;8.052;2023-05-22T07:15:25;100183.41;;;18.45;86.92
31483;BME280;18103;52.246;8.052;2023-05-22T07:17:51;100184.72;;;18.50;87.45
31483;BME280;18103;52.246;8.052;2023-05-22T07:20:18;100189.22;;;18.49;86.69
31483;BME280;18103;52.246;8.052;2023-05-22T07:22:46;100187.19;;;18.59;86.73
31483;BME280;18103;52.246;8.052;2023-05-22T07:25:15;100182.28;;;18.63;86.90
31483;BME280;18103;52.246;8.052;2023-05-22T07:27:40;100188.75;;;18.69;87.10
31483;BME280;18103;52.246;8.052;2023-05-22T07:30:06;100189.31;;;18.64;88.02
31483;BME280;18103;52.246;8.052;2023-05-22T07:32:34;100192.03;;;18.56;87.13
31483;BME280;18103;52.246;8.052;2023-05-22T07:34:59;100191.03;;;18.80;86.38
31483;BME280;18103;52.246;8.052;2023-05-22T07:37:27;100195.91;;;18.76;87.47
31483;BME280;18103;52.246;8.052;2023-05-22T07:39:52;100193.53;;;18.81;86.67
31483;BME280;18103;52.246;8.052;2023-05-22T07:42:18;100195.28;;;18.97;85.83
31483;BME280;18103;52.246;8.052;2023-05-22T07:44:43;100202.38;;;18.90;86.33
31483;BME280;18103;52.246;8.052;2023-05-22T07:47:11;100203.88;;;19.08;86.32
31483;BME280;18103;52.246;8.052;2023-05-22T07:49:37;100197.91;;;19.06;86.85
31483;BME280;18103;52.246;8.052;2023-05-22T07:52:05;100200.66;;;19.12;86.30
31483;BME280;18103;52.246;8.052;2023-05-22T07:54:30;100204.81;;;19.15;85.94
31483;BME280;18103;52.246;8.052;2023-05-22T07:56:56;100200.72;;;19.27;85.76
31483;BME280;18103;52.246;8.052;2023-05-22T07:59:21;100209.50;;;19.36;85.13
31483;BME280;18103;52.246;8.052;2023-05-22T08:01:48;100200.09;;;19.40;85.00
31483;BME280;18103;52.246;8.052;2023-05-22T08:04:16;100198.06;;;19.42;85.63
31483;BME280;18103;52.246;8.052;2023-05-22T08:06:45;100205.19;;;19.50;84.99
31483;BME280;18103;52.246;8.052;2023-05-22T08:09:10;100213.31;;;19.57;84.09
31483;BME280;18103;52.246;8.052;2023-05-22T08:11:36;100204.63;;;19.70;82.84
31483;BME280;18103;52.246;8.052;2023-05-22T08:14:04;100212.97;;;19.75;83.37
31483;BME280;18103;52.246;8.052;2023-05-22T08:16:29;100211.28;;;19.74;83.25
31483;BME280;18103;52.246;8.052;2023-05-22T08:18:58;100205.06;;;19.81;82.50
31483;BME280;18103;52.246;8.052;2023-05-22T08:21:25;100213.28;;;19.80;83.88
31483;BME280;18103;52.246;8.052;2023-05-22T08:23:53;100214.25;;;19.79;81.73
31483;BME280;18103;52.246;8.052;2023-05-22T08:26:18;100205.50;;;19.85;81.66
31483;BME280;18103;52.246;8.052;2023-05-22T08:28:44;100214.84;;;19.89;83.49
31483;BME280;18103;52.246;8.052;2023-05-22T08:31:10;100211.16;;;20.05;82.84
31483;BME280;18103;52.246;8.052;2023-05-22T08:33:38;100210.88;;;20.00;83.24
31483;BME280;18103;52.246;8.052;2023-05-22T08:36:06;100223.22;;;20.16;82.36
31483;BME280;18103;52.246;8.052;2023-05-22T08:38:31;100213.94;;;20.12;82.42
31483;BME280;18103;52.246;8.052;2023-05-22T08:41:02;100223.78;;;20.26;82.23
31483;BME280;18103;52.246;8.052;2023-05-22T08:43:29;100215.47;;;20.21;81.98
31483;BME280;18103;52.246;8.052;2023-05-22T08:46:04;100224.16;;;20.23;82.57
31483;BME280;18103;52.246;8.052;2023-05-22T08:48:32;100207.34;;;20.14;81.71
31483;BME280;18103;52.246;8.052;2023-05-22T08:51:02;100213.06;;;20.26;81.45
31483;BME280;18103;52.246;8.052;2023-05-22T08:53:34;100216.38;;;20.28;82.63
31483;BME280;18103;52.246;8.052;2023-05-22T08:56:01;100210.91;;;20.37;81.53
31483;BME280;18103;52.246;8.052;2023-05-22T08:58:27;100204.13;;;20.19;81.93
31483;BME280;18103;52.246;8.052;2023-05-22T09:00:56;100209.44;;;20.34;81.12
31483;BME280;18103;52.246;8.052;2023-05-22T09:03:24;100213.16;;;20.33;81.33
31483;BME280;18103;52.246;8.052;2023-05-22T09:05:52;100212.97;;;20.34;81.03
31483;BME280;18103;52.246;8.052;2023-05-22T09:08:20;100210.19;;;20.28;80.68
31483;BME280;18103;52.246;8.052;2023-05-22T09:10:46;100211.06;;;20.50;79.80
31483;BME280;18103;52.246;8.052;2023-05-22T09:13:29;100212.88;;;20.64;80.02
31483;BME280;18103;52.246;8.052;2023-05-22T09:18:27;100209.59;;;20.84;78.57
31483;BME280;18103;52.246;8.052;2023-05-22T09:20:58;100212.16;;;20.92;79.71
31483;BME280;18103;52.246;8.052;2023-05-22T09:23:27;100219.50;;;21.05;79.12
31483;BME280;18103;52.246;8.052;2023-05-22T09:25:56;100224.94;;;21.12;78.47
31483;BME280;18103;52.246;8.052;2023-05-22T09:28:22;100216.75;;;21.20;78.51
31483;BME280;18103;52.246;8.052;2023-05-22T09:33:17;100213.41;;;21.40;78.13
31483;BME280;18103;52.246;8.052;2023-05-22T09:35:45;100210.38;;;21.49;77.59
31483;BME280;18103;52.246;8.052;2023-05-22T09:38:11;100208.28;;;21.51;76.36
31483;BME280;18103;52.246;8.052;2023-05-22T09:40:40;100206.28;;;21.53;75.37
31483;BME280;18103;52.246;8.052;2023-05-22T09:43:09;100204.94;;;21.71;76.43
31483;BME280;18103;52.246;8.052;2023-05-22T09:45:35;100206.00;;;21.77;76.56
31483;BME280;18103;52.246;8.052;2023-05-22T09:48:02;100206.47;;;21.80;76.37
31483;BME280;18103;52.246;8.052;2023-05-22T09:50:28;100209.22;;;21.94;76.92
31483;BME280;18103;52.246;8.052;2023-05-22T09:52:57;100208.59;;;21.92;77.03
31483;BME280;18103;52.246;8.052;2023-05-22T09:55:28;100215.06;;;22.04;77.10
31483;BME280;18103;52.246;8.052;2023-05-22T09:57:55;100208.03;;;22.03;75.82
31483;BME280;18103;52.246;8.052;2023-05-22T10:00:21;100217.38;;;22.14;74.47
31483;BME280;18103;52.246;8.052;2023-05-22T10:02:52;100212.03;;;22.20;73.80
31483;BME280;18103;52.246;8.052;2023-05-22T10:05:17;100213.31;;;22.25;74.26
31483;BME280;18103;52.246;8.052;2023-05-22T10:07:50;100217.28;;;22.35;74.30
31483;BME280;18103;52.246;8.052;2023-05-22T10:10:19;100213.47;;;22.23;72.84
31483;BME280;18103;52.246;8.052;2023-05-22T10:13:02;100224.25;;;22.30;73.33
31483;BME280;18103;52.246;8.052;2023-05-22T10:15:30;100217.53;;;22.41;75.74
31483;BME280;18103;52.246;8.052;2023-05-22T10:17:58;100216.53;;;22.55;74.94
31483;BME280;18103;52.246;8.052;2023-05-22T10:20:28;100218.84;;;22.58;75.07
31483;BME280;18103;52.246;8.052;2023-05-22T10:22:54;100210.34;;;22.61;73.44
31483;BME280;18103;52.246;8.052;2023-05-22T10:25:20;100211.78;;;22.57;73.02
31483;BME280;18103;52.246;8.052;2023-05-22T10:27:51;100213.06;;;22.81;73.94
31483;BME280;18103;52.246;8.052;2023-05-22T10:30:31;100214.69;;;22.69;72.92
31483;BME280;18103;52.246;8.052;2023-05-22T10:33:17;100204.38;;;22.86;73.22
31483;BME280;18103;52.246;8.052;2023-05-22T10:35:48;100203.78;;;23.11;73.35
31483;BME280;18103;52.246;8.052;2023-05-22T10:40:50;100204.63;;;23.18;71.47
31483;BME280;18103;52.246;8.052;2023-05-22T10:43:15;100195.31;;;23.14;70.94
31483;BME280;18103;52.246;8.052;2023-05-22T10:45:45;100189.31;;;23.25;71.78
31483;BME280;18103;52.246;8.052;2023-05-22T10:48:11;100184.09;;;23.03;70.18
31483;BME280;18103;52.246;8.052;2023-05-22T10:50:37;100179.78;;;23.16;72.40
31483;BME280;18103;52.246;8.052;2023-05-22T10:55:57;100186.41;;;23.47;72.29
31483;BME280;18103;52.246;8.052;2023-05-22T10:58:34;100181.41;;;23.50;71.22
31483;BME280;18103;52.246;8.052;2023-05-22T11:01:20;100178.53;;;23.52;69.99
31483;BME280;18103;52.246;8.052;2023-05-22T11:04:08;100171.47;;;23.31;69.24
31483;BME280;18103;52.246;8.052;2023-05-22T11:09:16;100176.16;;;23.75;70.01
31483;BME280;18103;52.246;8.052;2023-05-22T11:11:43;100177.38;;;23.80;69.97
31483;BME280;18103;52.246;8.052;2023-05-22T11:14:10;100183.41;;;23.82;70.32
31483;BME280;18103;52.246;8.052;2023-05-22T11:16:37;100179.28;;;23.72;68.95
31483;BME280;18103;52.246;8.052;2023-05-22T11:19:07;100174.97;;;23.71;68.08
31483;BME280;18103;52.246;8.052;2023-05-22T11:21:45;100170.50;;;24.11;69.71
31483;BME280;18103;52.246;8.052;2023-05-22T11:24:15;100169.53;;;24.30;67.94
31483;BME280;18103;52.246;8.052;2023-05-22T11:26:42;100171.31;;;24.11;67.69
31483;BME280;18103;52.246;8.052;2023-05-22T11:29:08;100168.53;;;24.24;67.72
31483;BME280;18103;52.246;8.052;2023-05-22T11:31:34;100162.81;;;24.46;67.92
31483;BME280;18103;52.246;8.052;2023-05-22T11:34:03;100161.88;;;24.27;67.74
31483;BME280;18103;52.246;8.052;2023-05-22T11:36:29;100175.47;;;24.07;65.37
31483;BME280;18103;52.246;8.052;2023-05-22T11:38:58;100163.78;;;24.20;65.23
31483;BME280;18103;52.246;8.052;2023-05-22T11:41:28;100173.34;;;24.22;62.85
31483;BME280;18103;52.246;8.052;2023-05-22T11:43:56;100164.88;;;24.51;63.70
31483;BME280;18103;52.246;8.052;2023-05-22T11:46:21;100167.91;;;24.68;64.28
31483;BME280;18103;52.246;8.052;2023-05-22T11:48:47;100164.81;;;24.64;63.49
31483;BME280;18103;52.246;8.052;2023-05-22T11:51:12;100166.00;;;24.75;62.82
31483;BME280;18103;52.246;8.052;2023-05-22T11:53:37;100157.13;;;24.93;60.50
31483;BME280;18103;52.246;8.052;2023-05-22T11:56:05;100155.69;;;24.58;62.88
31483;BME280;18103;52.246;8.052;2023-05-22T11:58:31;100160.59;;;24.36;62.89
31483;BME280;18103;52.246;8.052;2023-05-22T12:01:00;100149.94;;;24.16;60.94
31483;BME280;18103;52.246;8.052;2023-05-22T12:03:29;100148.88;;;24.17;59.72
31483;BME280;18103;52.246;8.052;2023-05-22T12:05:56;100145.31;;;24.23;61.95
31483;BME280;18103;52.246;8.052;2023-05-22T12:08:22;100145.34;;;24.55;63.50
31483;BME280;18103;52.246;8.052;2023-05-22T12:10:49;100144.53;;;24.48;63.02
31483;BME280;18103;52.246;8.052;2023-05-22T12:13:23;100140.03;;;24.42;61.86
31483;BME280;18103;52.246;8.052;2023-05-22T12:15:56;100132.22;;;25.16;62.12
31483;BME280;18103;52.246;8.052;2023-05-22T12:18:21;100140.81;;;24.81;62.35
31483;BME280;18103;52.246;8.052;2023-05-22T12:20:50;100147.00;;;24.88;61.90
31483;BME280;18103;52.246;8.052;2023-05-22T12:23:27;100142.34;;;25.21;61.47
31483;BME280;18103;52.246;8.052;2023-05-22T12:26:01;100142.09;;;25.04;60.81
31483;BME280;18103;52.246;8.052;2023-05-22T12:28:30;100141.16;;;24.91;61.50
31483;BME280;18103;52.246;8.052;2023-05-22T12:30:56;100139.06;;;25.19;59.36
31483;BME280;18103;52.246;8.052;2023-05-22T12:33:26;100135.97;;;25.77;59.14
31483;BME280;18103;52.246;8.052;2023-05-22T12:35:54;100128.84;;;25.65;60.16
31483;BME280;18103;52.246;8.052;2023-05-22T12:38:32;100136.03;;;25.52;60.56
31483;BME280;18103;52.246;8.052;2023-05-22T12:40:57;100119.09;;;25.20;61.03
31483;BME280;18103;52.246;8.052;2023-05-22T12:43:23;100129.78;;;25.08;59.62
31483;BME280;18103;52.246;8.052;2023-05-22T12:45:52;100129.22;;;24.81;59.49
31483;BME280;18103;52.246;8.052;2023-05-22T12:48:17;100128.34;;;25.05;59.08
31483;BME280;18103;52.246;8.052;2023-05-22T12:50:47;100121.88;;;25.32;59.36
31483;BME280;18103;52.246;8.052;2023-05-22T12:53:15;100126.75;;;25.23;60.07
31483;BME280;18103;52.246;8.052;2023-05-22T12:55:43;100120.69;;;25.02;59.11
31483;BME280;18103;52.246;8.052;2023-05-22T12:58:11;100118.53;;;25.11;59.28
31483;BME280;18103;52.246;8.052;2023-05-22T13:00:36;100124.03;;;25.04;58.96
31483;BME280;18103;52.246;8.052;2023-05-22T13:03:05;100110.66;;;25.35;59.43
31483;BME280;18103;52.246;8.052;2023-05-22T13:05:32;100120.31;;;25.98;59.04
31483;BME280;18103;52.246;8.052;2023-05-22T13:07:58;100112.53;;;26.20;58.39
31483;BME280;18103;52.246;8.052;2023-05-22T13:10:23;100117.16;;;25.83;58.46
31483;BME280;18103;52.246;8.052;2023-05-22T13:12:49;100115.69;;;25.50;57.30
31483;BME280;18103;52.246;8.052;2023-05-22T13:15:16;100116.38;;;25.64;58.33